Time;durP1;ratioP1;P1;durP2;ratioP2;P2;SDS_P1;SDS_P2;PMS_P1;PMS_P2;Temp;Humidity;BMP_temperature;BMP_pressure;BME280_temperature;BME280_humidity;BME280_pressure;Samples;Min_cycle;Max_cycle;Signal;HPM_P1;HPM_P2
2022/04/30 00:00:34;;;;;;;;;;;;;;;8.30;78.99;100600.25;6101517;23;19939;-90
2022/04/30 00:03:00;;;;;;;;;;;;;;;8.24;79.93;100601.06;6151826;23;19920;-90
2022/04/30 00:05:26;;;;;;;;;;;;;;;8.10;82.94;100596.44;6125108;23;19920;-90
2022/04/30 00:07:51;;;;;;;;;;;;;;;7.98;83.62;100591.41;6125804;23;19953;-90
2022/04/30 00:10:17;;;;;;;;;;;;;;;7.86;84.04;100594.66;6151632;23;19964;-83
2022/04/30 00:12:42;;;;;;;;;;;;;;;7.84;83.70;100594.28;6119767;23;20231;-83
2022/04/30 00:15:08;;;;;;;;;;;;;;;7.82;84.40;100585.59;6125837;23;19940;-83
2022/04/30 00:17:34;;;;;;;;;;;;;;;7.81;84.03;100595.06;6102558;23;19919;-82
2022/04/30 00:20:00;;;;;;;;;;;;;;;7.84;86.10;100589.53;6153458;23;19944;-83
2022/04/30 00:22:25;;;;;;;;;;;;;;;7.79;85.45;100581.69;6154103;23;20224;-83
2022/04/30 00:24:50;;;;;;;;;;;;;;;7.84;86.25;100589.53;6152908;23;19939;-83
2022/04/30 00:27:20;;;;;;;;;;;;;;;7.86;85.25;100583.59;6128684;23;19915;-89
2022/04/30 00:29:46;;;;;;;;;;;;;;;7.80;85.23;100585.22;6127434;23;20335;-88
2022/04/30 00:32:11;;;;;;;;;;;;;;;7.65;85.96;100575.44;6127546;23;19936;-90
2022/04/30 00:34:36;;;;;;;;;;;;;;;7.55;86.40;100587.34;6152289;23;20290;-89
2022/04/30 00:37:03;;;;;;;;;;;;;;;7.56;85.90;100578.69;6152991;23;19913;-89
2022/04/30 00:39:32;;;;;;;;;;;;;;;7.56;85.30;100580.66;6169098;23;19964;-89
2022/04/30 00:41:58;;;;;;;;;;;;;;;7.55;84.25;100581.84;6128203;23;20251;-90
2022/04/30 00:44:24;;;;;;;;;;;;;;;7.39;88.21;100577.59;6128936;23;19912;-89
2022/04/30 00:46:50;;;;;;;;;;;;;;;7.37;87.06;100577.19;6152909;23;19995;-89
2022/04/30 00:49:15;;;;;;;;;;;;;;;7.37;86.91;100582.69;6153826;23;19917;-92
2022/04/30 00:51:43;;;;;;;;;;;;;;;7.27;88.11;100582.75;6128073;23;19919;-92
2022/04/30 00:54:08;;;;;;;;;;;;;;;7.19;89.22;100579.25;6152978;23;19912;-90
2022/04/30 00:56:34;;;;;;;;;;;;;;;7.27;89.21;100577.25;6128200;23;20389;-91
2022/04/30 00:59:00;;;;;;;;;;;;;;;7.34;87.52;100575.22;6153750;23;19935;-90
2022/04/30 01:03:51;;;;;;;;;;;;;;;7.37;88.47;100566.16;6146968;23;19954;-81
2022/04/30 01:06:18;;;;;;;;;;;;;;;7.39;87.39;100563.78;6152530;23;19967;-82
2022/04/30 01:08:44;;;;;;;;;;;;;;;7.46;84.24;100566.50;6153147;23;20322;-82
2022/04/30 01:11:09;;;;;;;;;;;;;;;7.52;83.24;100563.31;6154447;23;19936;-82
2022/04/30 01:13:35;;;;;;;;;;;;;;;7.54;82.51;100569.22;6154411;23;19939;-81
2022/04/30 01:16:08;;;;;;;;;;;;;;;7.64;81.91;100563.63;6152533;23;20039;-82
2022/04/30 01:18:34;;;;;;;;;;;;;;;7.55;83.22;100562.50;6152986;23;19986;-85
2022/04/30 01:21:00;;;;;;;;;;;;;;;7.35;85.77;100559.47;6152968;23;19936;-84
2022/04/30 01:23:26;;;;;;;;;;;;;;;7.21;87.28;100549.28;6153173;23;19913;-85
2022/04/30 01:25:51;;;;;;;;;;;;;;;7.26;88.40;100565.41;6127428;23;19908;-84
2022/04/30 01:28:18;;;;;;;;;;;;;;;7.24;87.18;100556.75;6152106;23;20298;-84
2022/04/30 01:30:43;;;;;;;;;;;;;;;7.30;87.33;100552.38;6154123;23;20330;-84
2022/04/30 19:03:52;;;;;;;;;;;;;;;15.92;48.05;100174.34;6177693;23;19920;-90
2022/04/30 19:06:18;;;;;;;;;;;;;;;15.92;48.57;100163.16;6179200;23;19916;-90
2022/04/30 19:08:43;;;;;;;;;;;;;;;15.92;48.13;100177.91;6153070;23;19923;-90
2022/04/30 19:11:10;;;;;;;;;;;;;;;15.89;48.48;100178.88;6177986;23;20497;-89
2022/04/30 19:13:37;;;;;;;;;;;;;;;15.82;48.21;100179.94;6178243;23;20022;-88
2022/04/30 19:16:03;;;;;;;;;;;;;;;15.74;48.52;100181.50;6154692;23;20443;-88
2022/04/30 19:18:28;;;;;;;;;;;;;;;15.71;48.72;100176.88;6178840;23;19975;-89
2022/04/30 19:20:53;;;;;;;;;;;;;;;15.59;48.60;100180.63;6179888;23;19919;-90
2022/04/30 19:23:19;;;;;;;;;;;;;;;15.61;49.12;100188.53;6178054;23;20654;-90
2022/04/30 19:25:44;;;;;;;;;;;;;;;15.60;49.61;100182.16;6180111;23;20000;-92
2022/04/30 19:28:11;;;;;;;;;;;;;;;15.53;49.97;100182.47;6180833;23;19958;-90
2022/04/30 19:30:39;;;;;;;;;;;;;;;15.43;50.06;100180.13;6179066;23;19999;-91
2022/04/30 19:33:05;;;;;;;;;;;;;;;15.39;49.96;100183.88;6179741;23;19916;-90
2022/04/30 19:35:31;;;;;;;;;;;;;;;15.32;50.22;100183.41;6179869;23;20017;-90
2022/04/30 19:37:57;;;;;;;;;;;;;;;15.25;50.46;100180.91;6180830;23;20298;-90
2022/04/30 19:40:22;;;;;;;;;;;;;;;15.21;51.23;100177.47;6154030;23;19912;-90
2022/04/30 19:42:52;;;;;;;;;;;;;;;15.17;51.05;100174.06;6181539;23;20339;-90
2022/04/30 19:45:18;;;;;;;;;;;;;;;15.14;50.70;100186.97;6179168;23;20243;-91
2022/04/30 19:47:44;;;;;;;;;;;;;;;15.16;51.34;100180.91;6178162;23;19916;-91
2022/04/30 19:50:09;;;;;;;;;;;;;;;15.10;51.08;100183.53;6178395;23;19912;-89
2022/04/30 19:52:35;;;;;;;;;;;;;;;15.07;51.48;100172.53;6179409;23;19916;-92
2022/04/30 19:55:00;;;;;;;;;;;;;;;15.06;52.65;100176.56;6181920;23;19912;-94
2022/04/30 19:57:26;;;;;;;;;;;;;;;15.00;53.24;100178.41;6179251;23;19939;-91
2022/04/30 19:59:51;;;;;;;;;;;;;;;14.91;52.80;100179.19;6180944;23;19943;-91
2022/04/30 20:02:16;;;;;;;;;;;;;;;14.87;52.72;100182.13;6191993;23;19916;-91
2022/04/30 20:04:43;;;;;;;;;;;;;;;14.84;53.01;100179.47;6186015;23;19935;-93
2022/04/30 20:07:09;;;;;;;;;;;;;;;14.82;54.12;100173.56;6212924;23;19943;-91
2022/04/30 20:09:34;;;;;;;;;;;;;;;14.76;54.23;100181.78;6186178;23;19912;-91
2022/04/30 20:17:29;;;;;;;;;;;;;;;14.72;54.19;100181.13;6184501;23;19919;-91
2022/04/30 20:19:54;;;;;;;;;;;;;;;14.69;54.19;100176.50;6184796;23;20320;-89
2022/04/30 20:22:19;;;;;;;;;;;;;;;14.69;54.41;100176.50;6208605;23;19919;-90
2022/04/30 20:24:46;;;;;;;;;;;;;;;14.69;55.27;100175.72;6211072;23;19916;-91
2022/04/30 20:27:12;;;;;;;;;;;;;;;14.66;56.20;100177.41;6183893;23;20340;-90
2022/04/30 20:29:37;;;;;;;;;;;;;;;14.63;56.98;100167.19;6184993;23;19908;-89
2022/04/30 20:37:35;;;;;;;;;;;;;;;14.50;58.18;100162.94;6213758;23;19947;-90
2022/04/30 20:40:00;;;;;;;;;;;;;;;14.38;58.16;100170.97;6214578;23;19912;-90
2022/04/30 20:42:26;;;;;;;;;;;;;;;14.27;58.88;100169.81;6214094;23;19912;-90
2022/04/30 20:44:51;;;;;;;;;;;;;;;14.24;59.21;100167.94;6188218;23;20296;-90
2022/04/30 20:47:16;;;;;;;;;;;;;;;14.26;59.35;100177.41;6162866;23;19908;-89
2022/04/30 20:49:42;;;;;;;;;;;;;;;14.23;59.33;100171.97;6214767;23;19998;-90
2022/04/30 20:52:08;;;;;;;;;;;;;;;14.22;59.92;100173.22;6186536;23;19943;-91
2022/04/30 20:54:34;;;;;;;;;;;;;;;14.17;60.80;100179.38;6213348;23;19939;-89
2022/04/30 20:57:02;;;;;;;;;;;;;;;14.07;60.51;100170.22;6187190;23;19912;-91
2022/04/30 20:59:30;;;;;;;;;;;;;;;14.06;61.35;100173.44;6186589;23;19958;-89
2022/04/30 21:01:57;;;;;;;;;;;;;;;14.07;60.98;100161.06;6212766;23;19969;-89
2022/04/30 21:04:22;;;;;;;;;;;;;;;14.05;61.01;100169.09;6211494;23;19915;-90
2022/04/30 21:06:48;;;;;;;;;;;;;;;14.08;61.55;100159.78;6186564;23;19923;-90
2022/04/30 21:09:13;;;;;;;;;;;;;;;14.08;61.97;100165.38;6213741;23;19923;-89
2022/04/30 21:11:39;;;;;;;;;;;;;;;14.07;61.59;100167.41;6187838;23;19912;-89
2022/04/30 21:14:04;;;;;;;;;;;;;;;14.07;62.47;100169.44;6187744;23;19911;-89
2022/04/30 21:16:30;;;;;;;;;;;;;;;14.05;62.30;100171.88;6187679;23;19920;-88
2022/04/30 21:18:56;;;;;;;;;;;;;;;13.99;62.40;100164.09;6188172;23;19930;-90
2022/04/30 21:21:21;;;;;;;;;;;;;;;13.96;63.24;100170.59;6162815;23;19961;-90
2022/04/30 21:23:47;;;;;;;;;;;;;;;13.92;62.97;100164.38;6163320;23;19922;-91
2022/04/30 21:26:12;;;;;;;;;;;;;;;13.92;63.03;100169.97;6187578;23;19970;-89
2022/04/30 21:28:39;;;;;;;;;;;;;;;13.89;62.93;100165.31;6162282;23;19974;-88
2022/04/30 21:31:05;;;;;;;;;;;;;;;13.90;63.01;100169.66;6163054;23;20308;-90
2022/04/30 21:33:30;;;;;;;;;;;;;;;13.92;63.92;100167.16;6178157;23;19919;-90
2022/04/30 21:35:55;;;;;;;;;;;;;;;13.91;63.98;100168.41;6213835;23;19911;-89
2022/04/30 21:38:21;;;;;;;;;;;;;;;13.90;64.01;100174.44;6211925;23;19911;-90
2022/04/30 21:43:30;;;;;;;;;;;;;;;13.88;63.34;100158.16;6190306;23;19997;-89
2022/04/30 21:45:56;;;;;;;;;;;;;;;13.76;64.32;100166.59;6186772;23;20275;-89
2022/04/30 21:48:25;;;;;;;;;;;;;;;13.75;65.82;100173.44;6213188;23;20339;-91
2022/04/30 21:50:50;;;;;;;;;;;;;;;13.71;65.59;100175.56;6211662;23;19978;-89
2022/04/30 21:53:16;;;;;;;;;;;;;;;13.74;65.38;100166.28;6212089;23;20332;-90
2022/04/30 22:01:12;;;;;;;;;;;;;;;13.80;64.55;100170.03;6212991;23;20260;-90
2022/04/30 22:03:38;;;;;;;;;;;;;;;13.76;64.61;100167.38;6210836;23;20337;-90
2022/04/30 22:06:04;;;;;;;;;;;;;;;13.77;64.56;100174.53;6186743;23;19916;-90
2022/04/30 22:08:29;;;;;;;;;;;;;;;13.74;64.98;100174.66;6210288;23;19927;-89
2022/04/30 22:10:55;;;;;;;;;;;;;;;13.76;65.18;100159.03;6186336;23;19919;-91
2022/04/30 22:13:24;;;;;;;;;;;;;;;13.75;65.32;100163.03;6213274;23;19996;-89
2022/04/30 22:15:50;;;;;;;;;;;;;;;13.68;65.88;100170.88;6212887;23;19920;-90
2022/04/30 22:18:16;;;;;;;;;;;;;;;13.62;67.36;100167.16;6213079;23;19966;-89
2022/04/30 22:20:42;;;;;;;;;;;;;;;13.49;69.73;100175.56;6213039;23;19986;-90
2022/04/30 22:23:07;;;;;;;;;;;;;;;13.25;71.86;100182.81;6210186;23;19939;-89
2022/04/30 22:25:33;;;;;;;;;;;;;;;13.17;71.39;100171.16;6212467;23;20336;-90
2022/04/30 22:27:58;;;;;;;;;;;;;;;13.21;72.18;100168.22;6211336;23;19911;-91
2022/04/30 22:30:24;;;;;;;;;;;;;;;13.20;72.53;100163.88;6211128;23;20027;-89
2022/04/30 22:32:49;;;;;;;;;;;;;;;13.23;71.14;100163.75;6211443;23;20050;-89
2022/04/30 22:35:16;;;;;;;;;;;;;;;13.31;71.88;100164.28;6211397;23;19969;-90
2022/04/30 22:37:41;;;;;;;;;;;;;;;13.29;71.75;100155.59;6210042;23;20407;-92
2022/04/30 22:42:54;;;;;;;;;;;;;;;13.35;71.02;100156.56;6211040;23;19920;-89
2022/04/30 22:45:20;;;;;;;;;;;;;;;13.36;70.42;100156.13;6211181;23;19907;-90
2022/04/30 22:47:47;;;;;;;;;;;;;;;13.38;70.90;100158.47;6209494;23;20239;-90
2022/04/30 22:50:12;;;;;;;;;;;;;;;13.40;70.68;100144.84;6211306;23;19911;-90
2022/04/30 22:52:37;;;;;;;;;;;;;;;13.36;71.87;100149.78;6211308;23;19961;-89
2022/04/30 22:55:03;;;;;;;;;;;;;;;13.32;73.51;100149.13;6210306;23;20001;-89
2022/04/30 22:57:29;;;;;;;;;;;;;;;13.25;73.36;100146.59;6210702;23;20299;-90
2022/04/30 22:59:54;;;;;;;;;;;;;;;13.15;74.36;100142.16;6209237;23;20421;-89
2022/04/30 23:02:19;;;;;;;;;;;;;;;13.03;74.11;100152.88;6211885;23;19994;-90
2022/04/30 23:04:45;;;;;;;;;;;;;;;12.99;74.92;100143.09;6210790;23;19916;-89
2022/04/30 23:07:10;;;;;;;;;;;;;;;12.99;74.93;100143.88;6211868;23;19916;-89
2022/04/30 23:09:35;;;;;;;;;;;;;;;13.06;75.12;100138.06;6211429;23;19914;-89
2022/04/30 23:12:01;;;;;;;;;;;;;;;13.15;72.16;100139.38;6210856;23;19947;-90
2022/04/30 23:14:26;;;;;;;;;;;;;;;13.19;71.37;100140.81;6212546;23;19915;-90
2022/04/30 23:16:52;;;;;;;;;;;;;;;13.26;71.09;100145.38;6210597;23;19912;-91
2022/04/30 23:19:17;;;;;;;;;;;;;;;13.32;69.85;100138.75;6209164;23;19907;-90
2022/04/30 23:21:42;;;;;;;;;;;;;;;13.36;69.46;100147.78;6212485;23;19912;-91
2022/04/30 23:24:08;;;;;;;;;;;;;;;13.44;68.88;100142.72;6210223;23;19912;-91
2022/04/30 23:26:33;;;;;;;;;;;;;;;13.50;68.38;100143.69;6211873;23;20224;-90
2022/04/30 23:29:07;;;;;;;;;;;;;;;13.55;68.07;100143.09;6210746;23;19911;-89
2022/04/30 23:31:32;;;;;;;;;;;;;;;13.58;68.44;100136.63;6211618;23;19943;-90
2022/04/30 23:33:58;;;;;;;;;;;;;;;13.56;69.86;100130.72;6210994;23;19919;-91
2022/04/30 23:36:25;;;;;;;;;;;;;;;13.57;71.80;100137.84;6210360;23;19912;-89
2022/04/30 23:38:50;;;;;;;;;;;;;;;13.55;72.38;100138.28;6211111;23;19946;-90
2022/04/30 23:41:16;;;;;;;;;;;;;;;13.51;72.86;100139.66;6212044;23;19911;-91
2022/04/30 23:43:41;;;;;;;;;;;;;;;13.28;75.64;100137.34;6210476;23;19907;-90
2022/04/30 23:46:07;;;;;;;;;;;;;;;13.06;77.26;100138.06;6209495;23;20006;-90
2022/04/30 23:48:32;;;;;;;;;;;;;;;13.06;76.40;100132.47;6209198;23;19935;-90
2022/04/30 23:50:58;;;;;;;;;;;;;;;13.00;77.08;100139.88;6211191;23;19912;-90
2022/04/30 23:53:23;;;;;;;;;;;;;;;12.91;77.74;100137.00;6212240;23;19912;-90
2022/04/30 23:55:49;;;;;;;;;;;;;;;12.90;78.42;100135.44;6184934;23;19912;-89
2022/04/30 23:58:15;;;;;;;;;;;;;;;12.80;80.34;100142.16;6209956;23;19997;-91
